sensor_id;sensor_type;location;lat;lon;timestamp;P1;durP1;ratioP1;P2;durP2;ratioP2
16522;SDS011;19889;52.546;13.348;2024-01-15T00:01:30;8.90;;;6.63;;
16522;SDS011;19889;52.546;13.348;2024-01-15T00:03:58;9.63;;;6.67;;
16522;SDS011;19889;52.546;13.348;2024-01-15T00:06:26;7.93;;;6.03;;
16522;SDS011;19889;52.546;13.348;2024-01-15T00:08:53;9.70;;;7.30;;
16522;SDS011;19889;52.546;13.348;2024-01-15T00:11:21;9.20;;;6.07;;
16522;SDS011;19889;52.546;13.348;2024-01-15T00:13:48;8.93;;;6.20;;
16522;SDS011;19889;52.546;13.348;2024-01-15T00:16:15;10.70;;;7.30;;
16522;SDS011;19889;52.546;13.348;2024-01-15T00:18:44;8.40;;;6.37;;
16522;SDS011;19889;52.546;13.348;2024-01-15T00:21:11;8.53;;;6.37;;
16522;SDS011;19889;52.546;13.348;2024-01-15T00:23:39;8.73;;;6.00;;
16522;SDS011;19889;52.546;13.348;2024-01-15T00:26:08;7.67;;;6.27;;
16522;SDS011;19889;52.546;13.348;2024-01-15T00:28:35;10.00;;;6.60;;
16522;SDS011;19889;52.546;13.348;2024-01-15T00:31:03;8.80;;;6.47;;
16522;SDS011;19889;52.546;13.348;2024-01-15T00:33:30;9.57;;;6.20;;
16522;SDS011;19889;52.546;13.348;2024-01-15T00:35:59;9.10;;;6.47;;
16522;SDS011;19889;52.546;13.348;2024-01-15T00:38:26;8.87;;;6.43;;
16522;SDS011;19889;52.546;13.348;2024-01-15T00:40:54;9.60;;;6.63;;
16522;SDS011;19889;52.546;13.348;2024-01-15T00:43:21;10.23;;;7.20;;
16522;SDS011;19889;52.546;13.348;2024-01-15T00:45:48;8.43;;;6.73;;
16522;SDS011;19889;52.546;13.348;2024-01-15T00:48:16;9.47;;;7.13;;
16522;SDS011;19889;52.546;13.348;2024-01-15T00:50:43;9.13;;;6.33;;
16522;SDS011;19889;52.546;13.348;2024-01-15T00:53:12;8.80;;;6.33;;
16522;SDS011;19889;52.546;13.348;2024-01-15T00:55:39;8.53;;;6.20;;
16522;SDS011;19889;52.546;13.348;2024-01-15T00:58:07;8.60;;;6.50;;
16522;SDS011;19889;52.546;13.348;2024-01-15T01:00:34;10.13;;;7.00;;
16522;SDS011;19889;52.546;13.348;2024-01-15T01:03:01;8.97;;;6.03;;
16522;SDS011;19889;52.546;13.348;2024-01-15T01:05:29;7.63;;;5.60;;
16522;SDS011;19889;52.546;13.348;2024-01-15T01:07:56;9.17;;;6.70;;
16522;SDS011;19889;52.546;13.348;2024-01-15T01:10:25;9.40;;;7.03;;
16522;SDS011;19889;52.546;13.348;2024-01-15T01:12:52;8.50;;;5.70;;
16522;SDS011;19889;52.546;13.348;2024-01-15T01:15:19;10.90;;;7.40;;
16522;SDS011;19889;52.546;13.348;2024-01-15T01:17:46;8.40;;;6.93;;
16522;SDS011;19889;52.546;13.348;2024-01-15T01:20:13;10.80;;;8.30;;
16522;SDS011;19889;52.546;13.348;2024-01-15T01:22:41;9.40;;;7.40;;
16522;SDS011;19889;52.546;13.348;2024-01-15T01:25:08;11.10;;;7.20;;
16522;SDS011;19889;52.546;13.348;2024-01-15T01:27:37;10.00;;;7.47;;
16522;SDS011;19889;52.546;13.348;2024-01-15T01:30:05;13.37;;;7.70;;
16522;SDS011;19889;52.546;13.348;2024-01-15T01:32:33;11.27;;;7.00;;
16522;SDS011;19889;52.546;13.348;2024-01-15T01:35:00;11.47;;;7.30;;
16522;SDS011;19889;52.546;13.348;2024-01-15T01:37:27;10.83;;;7.10;;
16522;SDS011;19889;52.546;13.348;2024-01-15T01:39:55;11.17;;;8.00;;
16522;SDS011;19889;52.546;13.348;2024-01-15T01:42:22;13.60;;;7.07;;
16522;SDS011;19889;52.546;13.348;2024-01-15T01:44:50;9.53;;;6.80;;
16522;SDS011;19889;52.546;13.348;2024-01-15T01:47:18;10.60;;;7.27;;
16522;SDS011;19889;52.546;13.348;2024-01-15T01:49:45;12.90;;;8.13;;
16522;SDS011;19889;52.546;13.348;2024-01-15T01:52:13;10.70;;;7.37;;
16522;SDS011;19889;52.546;13.348;2024-01-15T01:54:41;10.47;;;7.97;;
16522;SDS011;19889;52.546;13.348;2024-01-15T01:57:08;10.33;;;7.00;;
16522;SDS011;19889;52.546;13.348;2024-01-15T01:59:37;13.63;;;6.90;;
16522;SDS011;19889;52.546;13.348;2024-01-15T02:02:06;8.30;;;5.80;;
16522;SDS011;19889;52.546;13.348;2024-01-15T02:04:33;9.57;;;6.97;;
16522;SDS011;19889;52.546;13.348;2024-01-15T02:07:03;11.33;;;7.37;;
16522;SDS011;19889;52.546;13.348;2024-01-15T02:09:30;10.23;;;7.10;;
16522;SDS011;19889;52.546;13.348;2024-01-15T02:11:58;9.37;;;6.60;;
16522;SDS011;19889;52.546;13.348;2024-01-15T02:14:25;9.23;;;5.63;;
16522;SDS011;19889;52.546;13.348;2024-01-15T02:16:53;9.00;;;6.63;;
16522;SDS011;19889;52.546;13.348;2024-01-15T02:19:21;9.73;;;6.17;;
16522;SDS011;19889;52.546;13.348;2024-01-15T02:21:48;10.30;;;6.80;;
16522;SDS011;19889;52.546;13.348;2024-01-15T02:24:17;11.27;;;6.17;;
16522;SDS011;19889;52.546;13.348;2024-01-15T02:26:44;11.30;;;6.53;;
16522;SDS011;19889;52.546;13.348;2024-01-15T02:29:12;10.90;;;6.83;;
16522;SDS011;19889;52.546;13.348;2024-01-15T02:31:40;7.30;;;5.40;;
16522;SDS011;19889;52.546;13.348;2024-01-15T02:34:07;8.33;;;5.33;;
16522;SDS011;19889;52.546;13.348;2024-01-15T02:36:34;7.47;;;5.40;;
16522;SDS011;19889;52.546;13.348;2024-01-15T02:39:02;7.47;;;5.00;;
16522;SDS011;19889;52.546;13.348;2024-01-15T02:41:30;9.80;;;5.53;;
16522;SDS011;19889;52.546;13.348;2024-01-15T02:43:58;7.60;;;4.93;;
16522;SDS011;19889;52.546;13.348;2024-01-15T02:46:25;7.73;;;4.90;;
16522;SDS011;19889;52.546;13.348;2024-01-15T02:48:52;8.40;;;5.20;;
16522;SDS011;19889;52.546;13.348;2024-01-15T02:51:19;8.57;;;5.00;;
16522;SDS011;19889;52.546;13.348;2024-01-15T02:53:48;6.37;;;4.87;;
16522;SDS011;19889;52.546;13.348;2024-01-15T02:56:16;6.73;;;5.07;;
16522;SDS011;19889;52.546;13.348;2024-01-15T02:58:45;8.17;;;4.87;;
16522;SDS011;19889;52.546;13.348;2024-01-15T03:01:12;7.13;;;4.77;;
16522;SDS011;19889;52.546;13.348;2024-01-15T03:03:39;7.43;;;4.87;;
16522;SDS011;19889;52.546;13.348;2024-01-15T03:06:07;6.20;;;4.53;;
16522;SDS011;19889;52.546;13.348;2024-01-15T03:08:34;6.77;;;4.70;;
16522;SDS011;19889;52.546;13.348;2024-01-15T03:11:01;8.13;;;4.83;;
16522;SDS011;19889;52.546;13.348;2024-01-15T03:13:29;6.67;;;4.77;;
16522;SDS011;19889;52.546;13.348;2024-01-15T03:15:57;8.07;;;4.80;;
16522;SDS011;19889;52.546;13.348;2024-01-15T03:18:25;8.20;;;4.63;;
16522;SDS011;19889;52.546;13.348;2024-01-15T03:20:52;6.00;;;4.10;;
16522;SDS011;19889;52.546;13.348;2024-01-15T03:23:19;6.37;;;4.67;;
16522;SDS011;19889;52.546;13.348;2024-01-15T03:25:46;8.80;;;4.70;;
16522;SDS011;19889;52.546;13.348;2024-01-15T03:28:14;5.27;;;3.93;;
16522;SDS011;19889;52.546;13.348;2024-01-15T03:30:41;7.03;;;4.40;;
16522;SDS011;19889;52.546;13.348;2024-01-15T03:33:10;7.27;;;5.00;;
16522;SDS011;19889;52.546;13.348;2024-01-15T03:35:37;6.40;;;4.57;;
16522;SDS011;19889;52.546;13.348;2024-01-15T03:38:05;8.53;;;5.03;;
16522;SDS011;19889;52.546;13.348;2024-01-15T03:40:32;6.67;;;4.90;;
16522;SDS011;19889;52.546;13.348;2024-01-15T03:42:59;6.83;;;4.87;;
16522;SDS011;19889;52.546;13.348;2024-01-15T03:45:26;6.83;;;4.00;;
16522;SDS011;19889;52.546;13.348;2024-01-15T03:47:54;7.83;;;5.10;;
16522;SDS011;19889;52.546;13.348;2024-01-15T03:50:22;6.27;;;4.73;;
16522;SDS011;19889;52.546;13.348;2024-01-15T03:52:50;5.87;;;4.10;;
16522;SDS011;19889;52.546;13.348;2024-01-15T03:55:17;6.33;;;3.60;;
16522;SDS011;19889;52.546;13.348;2024-01-15T03:57:44;5.77;;;3.90;;
16522;SDS011;19889;52.546;13.348;2024-01-15T04:00:12;6.80;;;4.10;;
16522;SDS011;19889;52.546;13.348;2024-01-15T04:02:42;7.40;;;4.10;;
16522;SDS011;19889;52.546;13.348;2024-01-15T04:05:10;6.53;;;4.27;;
16522;SDS011;19889;52.546;13.348;2024-01-15T04:07:38;7.63;;;5.07;;
16522;SDS011;19889;52.546;13.348;2024-01-15T04:10:06;7.17;;;3.83;;
16522;SDS011;19889;52.546;13.348;2024-01-15T04:12:33;8.57;;;4.57;;
16522;SDS011;19889;52.546;13.348;2024-01-15T04:15:01;8.63;;;4.10;;
16522;SDS011;19889;52.546;13.348;2024-01-15T04:17:28;5.57;;;3.40;;
16522;SDS011;19889;52.546;13.348;2024-01-15T04:19:55;5.90;;;3.90;;
16522;SDS011;19889;52.546;13.348;2024-01-15T04:22:22;7.00;;;3.83;;
16522;SDS011;19889;52.546;13.348;2024-01-15T04:24:51;5.93;;;3.50;;
16522;SDS011;19889;52.546;13.348;2024-01-15T04:27:18;5.83;;;3.60;;
16522;SDS011;19889;52.546;13.348;2024-01-15T04:29:45;7.17;;;3.80;;
16522;SDS011;19889;52.546;13.348;2024-01-15T04:32:13;7.93;;;3.87;;
16522;SDS011;19889;52.546;13.348;2024-01-15T04:34:40;6.13;;;3.40;;
16522;SDS011;19889;52.546;13.348;2024-01-15T04:37:07;5.17;;;3.20;;
16522;SDS011;19889;52.546;13.348;2024-01-15T04:39:35;5.33;;;3.33;;
16522;SDS011;19889;52.546;13.348;2024-01-15T04:42:04;4.47;;;3.37;;
16522;SDS011;19889;52.546;13.348;2024-01-15T04:44:31;6.90;;;3.30;;
16522;SDS011;19889;52.546;13.348;2024-01-15T04:46:59;6.10;;;4.00;;
16522;SDS011;19889;52.546;13.348;2024-01-15T04:49:26;6.73;;;3.60;;
16522;SDS011;19889;52.546;13.348;2024-01-15T04:51:54;5.77;;;2.90;;
16522;SDS011;19889;52.546;13.348;2024-01-15T04:54:22;4.33;;;2.70;;
16522;SDS011;19889;52.546;13.348;2024-01-15T04:56:49;4.40;;;2.63;;
16522;SDS011;19889;52.546;13.348;2024-01-15T04:59:18;6.17;;;3.40;;
16522;SDS011;19889;52.546;13.348;2024-01-15T05:01:45;4.23;;;3.07;;
16522;SDS011;19889;52.546;13.348;2024-01-15T05:04:12;3.83;;;2.53;;
16522;SDS011;19889;52.546;13.348;2024-01-15T05:06:40;4.93;;;2.63;;
16522;SDS011;19889;52.546;13.348;2024-01-15T05:09:07;4.80;;;2.80;;
16522;SDS011;19889;52.546;13.348;2024-01-15T05:11:35;3.10;;;2.20;;
16522;SDS011;19889;52.546;13.348;2024-01-15T05:14:02;3.50;;;2.00;;
16522;SDS011;19889;52.546;13.348;2024-01-15T05:16:31;6.50;;;2.70;;
16522;SDS011;19889;52.546;13.348;2024-01-15T05:18:59;4.77;;;2.73;;
16522;SDS011;19889;52.546;13.348;2024-01-15T05:21:26;3.87;;;2.30;;
16522;SDS011;19889;52.546;13.348;2024-01-15T05:23:53;3.33;;;2.13;;
16522;SDS011;19889;52.546;13.348;2024-01-15T05:26:21;5.37;;;2.07;;
16522;SDS011;19889;52.546;13.348;2024-01-15T05:28:48;2.67;;;1.90;;
16522;SDS011;19889;52.546;13.348;2024-01-15T05:31:16;4.83;;;2.60;;
16522;SDS011;19889;52.546;13.348;2024-01-15T05:33:44;2.90;;;1.97;;
16522;SDS011;19889;52.546;13.348;2024-01-15T05:36:12;5.00;;;2.77;;
16522;SDS011;19889;52.546;13.348;2024-01-15T05:38:39;3.70;;;2.03;;
16522;SDS011;19889;52.546;13.348;2024-01-15T05:41:06;4.60;;;1.80;;
16522;SDS011;19889;52.546;13.348;2024-01-15T05:43:34;3.33;;;1.93;;
16522;SDS011;19889;52.546;13.348;2024-01-15T05:46:01;3.03;;;2.17;;
16522;SDS011;19889;52.546;13.348;2024-01-15T05:48:29;4.80;;;2.20;;
16522;SDS011;19889;52.546;13.348;2024-01-15T05:50:58;2.87;;;1.80;;
16522;SDS011;19889;52.546;13.348;2024-01-15T05:53:25;3.43;;;1.63;;
16522;SDS011;19889;52.546;13.348;2024-01-15T05:55:52;6.57;;;1.63;;
16522;SDS011;19889;52.546;13.348;2024-01-15T05:58:21;7.70;;;2.17;;
16522;SDS011;19889;52.546;13.348;2024-01-15T06:00:48;3.73;;;1.73;;
16522;SDS011;19889;52.546;13.348;2024-01-15T06:03:16;4.13;;;2.63;;
16522;SDS011;19889;52.546;13.348;2024-01-15T06:05:44;3.57;;;2.00;;
16522;SDS011;19889;52.546;13.348;2024-01-15T06:08:12;4.90;;;2.30;;
16522;SDS011;19889;52.546;13.348;2024-01-15T06:10:41;2.60;;;1.57;;
16522;SDS011;19889;52.546;13.348;2024-01-15T06:13:08;2.47;;;1.50;;
16522;SDS011;19889;52.546;13.348;2024-01-15T06:15:35;3.27;;;1.87;;
16522;SDS011;19889;52.546;13.348;2024-01-15T06:18:03;4.40;;;1.80;;
16522;SDS011;19889;52.546;13.348;2024-01-15T06:20:31;3.17;;;1.70;;
16522;SDS011;19889;52.546;13.348;2024-01-15T06:22:58;4.23;;;1.60;;
16522;SDS011;19889;52.546;13.348;2024-01-15T06:25:27;6.23;;;1.90;;
16522;SDS011;19889;52.546;13.348;2024-01-15T06:27:54;4.33;;;1.80;;
16522;SDS011;19889;52.546;13.348;2024-01-15T06:30:22;2.23;;;1.67;;
16522;SDS011;19889;52.546;13.348;2024-01-15T06:32:49;5.20;;;1.50;;
16522;SDS011;19889;52.546;13.348;2024-01-15T06:35:17;5.60;;;1.77;;
16522;SDS011;19889;52.546;13.348;2024-01-15T06:37:44;3.50;;;1.30;;
16522;SDS011;19889;52.546;13.348;2024-01-15T06:40:12;4.37;;;1.60;;
16522;SDS011;19889;52.546;13.348;2024-01-15T06:42:41;3.63;;;1.73;;
16522;SDS011;19889;52.546;13.348;2024-01-15T06:45:08;8.70;;;1.90;;
16522;SDS011;19889;52.546;13.348;2024-01-15T06:47:36;6.43;;;1.90;;
16522;SDS011;19889;52.546;13.348;2024-01-15T06:50:04;8.20;;;1.83;;
16522;SDS011;19889;52.546;13.348;2024-01-15T06:52:32;4.03;;;1.73;;
16522;SDS011;19889;52.546;13.348;2024-01-15T06:54:58;4.47;;;1.50;;
16522;SDS011;19889;52.546;13.348;2024-01-15T06:57:26;3.67;;;1.60;;
16522;SDS011;19889;52.546;13.348;2024-01-15T06:59:55;4.53;;;1.50;;
16522;SDS011;19889;52.546;13.348;2024-01-15T07:02:22;3.67;;;1.67;;
16522;SDS011;19889;52.546;13.348;2024-01-15T07:04:50;6.53;;;2.03;;
16522;SDS011;19889;52.546;13.348;2024-01-15T07:07:17;3.80;;;2.20;;
16522;SDS011;19889;52.546;13.348;2024-01-15T07:09:44;5.87;;;1.50;;
16522;SDS011;19889;52.546;13.348;2024-01-15T07:12:12;5.17;;;1.60;;
16522;SDS011;19889;52.546;13.348;2024-01-15T07:14:39;7.00;;;1.57;;
16522;SDS011;19889;52.546;13.348;2024-01-15T07:17:08;10.97;;;1.83;;
16522;SDS011;19889;52.546;13.348;2024-01-15T07:19:35;4.47;;;1.97;;
16522;SDS011;19889;52.546;13.348;2024-01-15T07:22:03;4.97;;;1.37;;
16522;SDS011;19889;52.546;13.348;2024-01-15T07:24:30;5.60;;;1.93;;
16522;SDS011;19889;52.546;13.348;2024-01-15T07:26:59;4.40;;;1.70;;
16522;SDS011;19889;52.546;13.348;2024-01-15T07:29:30;3.50;;;1.60;;
16522;SDS011;19889;52.546;13.348;2024-01-15T07:31:58;4.30;;;1.40;;
16522;SDS011;19889;52.546;13.348;2024-01-15T07:34:27;5.00;;;1.63;;
16522;SDS011;19889;52.546;13.348;2024-01-15T07:36:54;4.00;;;1.93;;
16522;SDS011;19889;52.546;13.348;2024-01-15T07:39:21;4.40;;;1.73;;
16522;SDS011;19889;52.546;13.348;2024-01-15T07:41:50;4.80;;;1.87;;
16522;SDS011;19889;52.546;13.348;2024-01-15T07:44:17;3.87;;;1.83;;
16522;SDS011;19889;52.546;13.348;2024-01-15T07:46:45;9.03;;;3.10;;
16522;SDS011;19889;52.546;13.348;2024-01-15T07:49:13;3.93;;;1.30;;
16522;SDS011;19889;52.546;13.348;2024-01-15T07:51:43;5.20;;;2.00;;
16522;SDS011;19889;52.546;13.348;2024-01-15T07:54:10;4.83;;;1.80;;
16522;SDS011;19889;52.546;13.348;2024-01-15T07:56:52;3.63;;;1.60;;
16522;SDS011;19889;52.546;13.348;2024-01-15T07:59:20;5.37;;;1.87;;
16522;SDS011;19889;52.546;13.348;2024-01-15T08:01:48;6.10;;;1.83;;
16522;SDS011;19889;52.546;13.348;2024-01-15T08:04:15;7.43;;;1.47;;
16522;SDS011;19889;52.546;13.348;2024-01-15T08:06:44;5.33;;;1.60;;
16522;SDS011;19889;52.546;13.348;2024-01-15T08:09:12;5.33;;;1.93;;
16522;SDS011;19889;52.546;13.348;2024-01-15T08:11:40;5.70;;;1.40;;
16522;SDS011;19889;52.546;13.348;2024-01-15T08:14:08;2.67;;;1.83;;
16522;SDS011;19889;52.546;13.348;2024-01-15T08:16:36;4.83;;;2.20;;
16522;SDS011;19889;52.546;13.348;2024-01-15T08:19:03;5.60;;;2.30;;
16522;SDS011;19889;52.546;13.348;2024-01-15T08:21:31;4.93;;;1.53;;
16522;SDS011;19889;52.546;13.348;2024-01-15T08:24:01;6.77;;;3.47;;
16522;SDS011;19889;52.546;13.348;2024-01-15T08:26:29;5.20;;;2.10;;
16522;SDS011;19889;52.546;13.348;2024-01-15T08:28:57;6.17;;;2.10;;
16522;SDS011;19889;52.546;13.348;2024-01-15T08:31:25;4.77;;;1.67;;
16522;SDS011;19889;52.546;13.348;2024-01-15T08:33:52;2.70;;;1.70;;
16522;SDS011;19889;52.546;13.348;2024-01-15T08:36:21;4.17;;;1.40;;
16522;SDS011;19889;52.546;13.348;2024-01-15T08:38:49;2.97;;;1.57;;
16522;SDS011;19889;52.546;13.348;2024-01-15T08:41:18;4.67;;;1.30;;
16522;SDS011;19889;52.546;13.348;2024-01-15T08:43:46;5.07;;;1.47;;
16522;SDS011;19889;52.546;13.348;2024-01-15T08:46:14;6.60;;;1.97;;
16522;SDS011;19889;52.546;13.348;2024-01-15T08:48:41;4.03;;;1.57;;
16522;SDS011;19889;52.546;13.348;2024-01-15T08:51:09;4.80;;;1.63;;
16522;SDS011;19889;52.546;13.348;2024-01-15T08:53:36;4.90;;;1.43;;
16522;SDS011;19889;52.546;13.348;2024-01-15T08:56:05;4.97;;;2.20;;
16522;SDS011;19889;52.546;13.348;2024-01-15T08:58:35;3.53;;;2.43;;
16522;SDS011;19889;52.546;13.348;2024-01-15T09:01:02;5.27;;;1.87;;
16522;SDS011;19889;52.546;13.348;2024-01-15T09:03:30;4.50;;;1.53;;
16522;SDS011;19889;52.546;13.348;2024-01-15T09:05:59;4.00;;;1.47;;
16522;SDS011;19889;52.546;13.348;2024-01-15T09:08:26;5.57;;;1.70;;
16522;SDS011;19889;52.546;13.348;2024-01-15T09:10:54;8.37;;;2.27;;
16522;SDS011;19889;52.546;13.348;2024-01-15T09:13:22;6.03;;;1.80;;
16522;SDS011;19889;52.546;13.348;2024-01-15T09:15:51;6.47;;;1.97;;
16522;SDS011;19889;52.546;13.348;2024-01-15T09:18:18;7.60;;;2.20;;
16522;SDS011;19889;52.546;13.348;2024-01-15T09:20:46;6.57;;;2.03;;
16522;SDS011;19889;52.546;13.348;2024-01-15T09:23:14;3.87;;;1.30;;
16522;SDS011;19889;52.546;13.348;2024-01-15T09:25:41;3.00;;;1.77;;
16522;SDS011;19889;52.546;13.348;2024-01-15T09:28:09;6.27;;;1.60;;
16522;SDS011;19889;52.546;13.348;2024-01-15T09:30:36;4.97;;;1.90;;
16522;SDS011;19889;52.546;13.348;2024-01-15T09:33:05;7.70;;;1.87;;
16522;SDS011;19889;52.546;13.348;2024-01-15T09:35:33;3.00;;;1.63;;
16522;SDS011;19889;52.546;13.348;2024-01-15T09:38:00;2.93;;;1.57;;
16522;SDS011;19889;52.546;13.348;2024-01-15T09:40:29;7.13;;;1.73;;
16522;SDS011;19889;52.546;13.348;2024-01-15T09:42:59;4.30;;;1.50;;
16522;SDS011;19889;52.546;13.348;2024-01-15T09:45:28;3.03;;;1.63;;
16522;SDS011;19889;52.546;13.348;2024-01-15T09:47:56;5.33;;;1.93;;
16522;SDS011;19889;52.546;13.348;2024-01-15T09:50:25;4.60;;;2.07;;
16522;SDS011;19889;52.546;13.348;2024-01-15T09:52:52;3.00;;;1.60;;
16522;SDS011;19889;52.546;13.348;2024-01-15T09:55:22;3.33;;;1.20;;
16522;SDS011;19889;52.546;13.348;2024-01-15T09:57:50;9.63;;;1.87;;
16522;SDS011;19889;52.546;13.348;2024-01-15T10:00:18;2.27;;;1.40;;
16522;SDS011;19889;52.546;13.348;2024-01-15T10:02:47;4.77;;;1.63;;
16522;SDS011;19889;52.546;13.348;2024-01-15T10:05:15;5.07;;;1.50;;
16522;SDS011;19889;52.546;13.348;2024-01-15T10:07:44;2.20;;;1.37;;
16522;SDS011;19889;52.546;13.348;2024-01-15T10:10:15;3.00;;;1.63;;
16522;SDS011;19889;52.546;13.348;2024-01-15T10:12:42;4.23;;;1.73;;
16522;SDS011;19889;52.546;13.348;2024-01-15T10:15:10;5.77;;;1.40;;
16522;SDS011;19889;52.546;13.348;2024-01-15T10:17:38;2.43;;;1.70;;
16522;SDS011;19889;52.546;13.348;2024-01-15T10:20:07;5.63;;;1.40;;
16522;SDS011;19889;52.546;13.348;2024-01-15T10:22:38;2.50;;;1.30;;
16522;SDS011;19889;52.546;13.348;2024-01-15T10:25:11;1.67;;;1.40;;
16522;SDS011;19889;52.546;13.348;2024-01-15T10:27:39;1.70;;;1.30;;
16522;SDS011;19889;52.546;13.348;2024-01-15T10:30:07;2.20;;;1.70;;
16522;SDS011;19889;52.546;13.348;2024-01-15T10:32:35;3.37;;;1.67;;
16522;SDS011;19889;52.546;13.348;2024-01-15T10:35:03;5.43;;;1.50;;
16522;SDS011;19889;52.546;13.348;2024-01-15T10:37:32;3.37;;;1.53;;
16522;SDS011;19889;52.546;13.348;2024-01-15T10:40:01;3.47;;;1.73;;
16522;SDS011;19889;52.546;13.348;2024-01-15T10:42:32;4.10;;;1.70;;
16522;SDS011;19889;52.546;13.348;2024-01-15T10:44:59;4.37;;;1.43;;
16522;SDS011;19889;52.546;13.348;2024-01-15T10:47:27;3.47;;;1.63;;
16522;SDS011;19889;52.546;13.348;2024-01-15T10:49:56;4.80;;;1.73;;
16522;SDS011;19889;52.546;13.348;2024-01-15T10:52:23;2.20;;;1.20;;
16522;SDS011;19889;52.546;13.348;2024-01-15T10:54:51;2.37;;;1.40;;
16522;SDS011;19889;52.546;13.348;2024-01-15T10:57:20;2.70;;;1.43;;
16522;SDS011;19889;52.546;13.348;2024-01-15T10:59:50;1.53;;;1.20;;
16522;SDS011;19889;52.546;13.348;2024-01-15T11:02:17;2.47;;;1.50;;
16522;SDS011;19889;52.546;13.348;2024-01-15T11:04:45;1.33;;;1.20;;
16522;SDS011;19889;52.546;13.348;2024-01-15T11:07:12;1.97;;;1.00;;
16522;SDS011;19889;52.546;13.348;2024-01-15T11:09:40;1.87;;;1.10;;
16522;SDS011;19889;52.546;13.348;2024-01-15T11:12:09;1.73;;;1.43;;
16522;SDS011;19889;52.546;13.348;2024-01-15T11:14:40;2.90;;;1.20;;
16522;SDS011;19889;52.546;13.348;2024-01-15T11:17:11;2.47;;;1.10;;
16522;SDS011;19889;52.546;13.348;2024-01-15T11:19:38;2.80;;;1.10;;
16522;SDS011;19889;52.546;13.348;2024-01-15T11:22:10;1.40;;;0.80;;
16522;SDS011;19889;52.546;13.348;2024-01-15T11:25:01;1.37;;;1.07;;
16522;SDS011;19889;52.546;13.348;2024-01-15T11:27:39;1.23;;;1.00;;
16522;SDS011;19889;52.546;13.348;2024-01-15T11:30:07;1.40;;;0.90;;
16522;SDS011;19889;52.546;13.348;2024-01-15T11:32:39;2.00;;;0.90;;
16522;SDS011;19889;52.546;13.348;2024-01-15T11:35:08;2.83;;;1.23;;
16522;SDS011;19889;52.546;13.348;2024-01-15T11:40:39;1.50;;;1.00;;
16522;SDS011;19889;52.546;13.348;2024-01-15T11:43:09;2.00;;;1.30;;
16522;SDS011;19889;52.546;13.348;2024-01-15T11:45:38;1.83;;;1.40;;
16522;SDS011;19889;52.546;13.348;2024-01-15T11:48:11;1.47;;;0.97;;
16522;SDS011;19889;52.546;13.348;2024-01-15T11:50:41;2.83;;;1.10;;
16522;SDS011;19889;52.546;13.348;2024-01-15T11:53:21;2.17;;;1.40;;
16522;SDS011;19889;52.546;13.348;2024-01-15T11:55:57;3.67;;;1.60;;
16522;SDS011;19889;52.546;13.348;2024-01-15T11:58:25;4.30;;;1.43;;
16522;SDS011;19889;52.546;13.348;2024-01-15T12:00:53;2.27;;;1.33;;
16522;SDS011;19889;52.546;13.348;2024-01-15T12:03:22;3.13;;;1.80;;
16522;SDS011;19889;52.546;13.348;2024-01-15T12:05:51;3.43;;;1.50;;
16522;SDS011;19889;52.546;13.348;2024-01-15T12:08:20;1.27;;;1.17;;
16522;SDS011;19889;52.546;13.348;2024-01-15T12:10:48;1.67;;;1.10;;
16522;SDS011;19889;52.546;13.348;2024-01-15T12:13:16;1.60;;;1.00;;
16522;SDS011;19889;52.546;13.348;2024-01-15T12:15:44;1.30;;;1.20;;
16522;SDS011;19889;52.546;13.348;2024-01-15T12:18:12;1.23;;;1.10;;
16522;SDS011;19889;52.546;13.348;2024-01-15T12:20:42;1.60;;;1.50;;
16522;SDS011;19889;52.546;13.348;2024-01-15T12:23:12;1.33;;;1.23;;
16522;SDS011;19889;52.546;13.348;2024-01-15T12:25:39;2.63;;;1.33;;
16522;SDS011;19889;52.546;13.348;2024-01-15T12:28:07;1.60;;;1.33;;
16522;SDS011;19889;52.546;13.348;2024-01-15T12:30:35;2.53;;;1.20;;
16522;SDS011;19889;52.546;13.348;2024-01-15T12:33:03;3.73;;;1.20;;
16522;SDS011;19889;52.546;13.348;2024-01-15T12:35:31;1.17;;;1.00;;
16522;SDS011;19889;52.546;13.348;2024-01-15T12:38:01;1.40;;;1.10;;
16522;SDS011;19889;52.546;13.348;2024-01-15T12:40:30;1.20;;;1.10;;
16522;SDS011;19889;52.546;13.348;2024-01-15T12:42:58;2.93;;;1.20;;
16522;SDS011;19889;52.546;13.348;2024-01-15T12:45:25;2.00;;;1.20;;
16522;SDS011;19889;52.546;13.348;2024-01-15T12:47:53;1.20;;;1.10;;
16522;SDS011;19889;52.546;13.348;2024-01-15T12:50:23;1.10;;;1.00;;
16522;SDS011;19889;52.546;13.348;2024-01-15T12:52:51;2.20;;;1.47;;
16522;SDS011;19889;52.546;13.348;2024-01-15T12:55:20;1.20;;;1.10;;
16522;SDS011;19889;52.546;13.348;2024-01-15T12:57:47;2.83;;;1.17;;
16522;SDS011;19889;52.546;13.348;2024-01-15T13:00:17;1.67;;;1.27;;
16522;SDS011;19889;52.546;13.348;2024-01-15T13:02:45;1.10;;;1.00;;
16522;SDS011;19889;52.546;13.348;2024-01-15T13:05:12;1.47;;;1.10;;
16522;SDS011;19889;52.546;13.348;2024-01-15T13:07:39;1.20;;;1.10;;
16522;SDS011;19889;52.546;13.348;2024-01-15T13:10:07;1.13;;;1.03;;
16522;SDS011;19889;52.546;13.348;2024-01-15T13:12:36;1.13;;;1.00;;
16522;SDS011;19889;52.546;13.348;2024-01-15T13:15:05;1.83;;;1.50;;
16522;SDS011;19889;52.546;13.348;2024-01-15T13:17:36;2.83;;;1.47;;
16522;SDS011;19889;52.546;13.348;2024-01-15T13:20:04;3.30;;;1.27;;
16522;SDS011;19889;52.546;13.348;2024-01-15T13:22:33;1.20;;;1.10;;
16522;SDS011;19889;52.546;13.348;2024-01-15T13:25:01;1.23;;;1.13;;
16522;SDS011;19889;52.546;13.348;2024-01-15T13:27:29;1.13;;;1.03;;
16522;SDS011;19889;52.546;13.348;2024-01-15T13:29:58;1.73;;;1.17;;
16522;SDS011;19889;52.546;13.348;2024-01-15T13:32:26;2.07;;;1.20;;
16522;SDS011;19889;52.546;13.348;2024-01-15T13:34:55;2.60;;;1.03;;
16522;SDS011;19889;52.546;13.348;2024-01-15T13:37:23;1.73;;;1.20;;
16522;SDS011;19889;52.546;13.348;2024-01-15T13:39:51;1.40;;;1.20;;
16522;SDS011;19889;52.546;13.348;2024-01-15T13:42:18;2.17;;;1.37;;
16522;SDS011;19889;52.546;13.348;2024-01-15T13:44:47;2.43;;;1.10;;
16522;SDS011;19889;52.546;13.348;2024-01-15T13:47:16;1.00;;;1.00;;
16522;SDS011;19889;52.546;13.348;2024-01-15T13:49:43;1.50;;;1.23;;
16522;SDS011;19889;52.546;13.348;2024-01-15T13:52:11;3.47;;;1.10;;
16522;SDS011;19889;52.546;13.348;2024-01-15T13:54:39;2.80;;;1.53;;
16522;SDS011;19889;52.546;13.348;2024-01-15T13:57:06;2.70;;;1.40;;
16522;SDS011;19889;52.546;13.348;2024-01-15T13:59:33;1.73;;;1.00;;
16522;SDS011;19889;52.546;13.348;2024-01-15T14:02:01;1.47;;;1.10;;
16522;SDS011;19889;52.546;13.348;2024-01-15T14:04:29;3.00;;;1.23;;
16522;SDS011;19889;52.546;13.348;2024-01-15T14:06:57;2.63;;;1.27;;
16522;SDS011;19889;52.546;13.348;2024-01-15T14:09:24;1.90;;;1.47;;
16522;SDS011;19889;52.546;13.348;2024-01-15T14:11:51;5.10;;;1.30;;
16522;SDS011;19889;52.546;13.348;2024-01-15T14:14:19;9.70;;;1.67;;
16522;SDS011;19889;52.546;13.348;2024-01-15T14:16:47;1.87;;;1.10;;
16522;SDS011;19889;52.546;13.348;2024-01-15T14:19:14;2.20;;;1.43;;
16522;SDS011;19889;52.546;13.348;2024-01-15T14:21:43;3.30;;;1.20;;
16522;SDS011;19889;52.546;13.348;2024-01-15T14:24:10;1.63;;;1.00;;
16522;SDS011;19889;52.546;13.348;2024-01-15T14:26:37;1.13;;;1.03;;
16522;SDS011;19889;52.546;13.348;2024-01-15T14:29:05;2.00;;;1.30;;
16522;SDS011;19889;52.546;13.348;2024-01-15T14:31:32;3.13;;;1.57;;
16522;SDS011;19889;52.546;13.348;2024-01-15T14:34:00;1.87;;;1.27;;
16522;SDS011;19889;52.546;13.348;2024-01-15T14:36:28;1.87;;;1.33;;
16522;SDS011;19889;52.546;13.348;2024-01-15T14:38:57;2.37;;;1.10;;
16522;SDS011;19889;52.546;13.348;2024-01-15T14:41:24;1.87;;;1.27;;